Fraziers Bottom, West Virginia
Current Conditions -  °F | °C
As of 3:35 AM on Sunday 23 Nov 2014 (Local Time) from K3I2 Reporting Station
Broken Clouds Broken Clouds  
Wind Chill: 34°   Ceiling: 9500
Heat Index: 34°   Visibility: 10mi
Dew Point: 32°   Wind: 0mph
Humidity: 93%   Direction: NA
Pressure: 30.11"   Gusts: NA
Location:  38.57°N, 81.99°W
Report Text: K3I2 230835Z AUTO 00000KT 10SM BKN095 01/00 A3011 RMK AO2
Loading
Personal Weather Stations






























Interactive Weather Map New forecast layout! Learn more

10-Day Weather Forecast

Advertisements
Track Severe Weather on mobile